Time,TemperatureF,DewpointF,PressureIn,WindDirection,WindDirectionDegrees,WindSpeedMPH,WindSpeedGustMPH,Humidity,HourlyPrecipIn,Conditions,Clouds,dailyrainin,SoftwareType,DateUTC
2013-01-03 00:03:00,21.6,15.6,30.19,SSW,202,3.5,4.9,78,0.00,,,0.00,WUHU21636XXSP,2013-01-03 06:03:00,
2013-01-03 00:08:00,21.6,15.6,30.19,SSW,202,3.5,3.5,78,0.00,,,0.00,WUHU21636XXSP,2013-01-03 06:08:00,
2013-01-03 00:13:00,21.4,15.4,30.19,SSW,202,1.1,3.5,78,0.00,,,0.00,WUHU21636XXSP,2013-01-03 06:13:00,
2013-01-03 00:18:00,21.4,15.4,30.18,SW,225,3.8,3.8,79,0.00,,,0.00,WUHU21636XXSP,2013-01-03 06:18:00,
2013-01-03 00:23:00,21.4,15.8,30.18,SW,225,5.3,8.0,79,0.00,,,0.00,WUHU21636XXSP,2013-01-03 06:23:00,
2013-01-03 00:28:00,21.6,16.0,30.18,SW,225,4.6,8.0,79,0.00,,,0.00,WUHU21636XXSP,2013-01-03 06:28:00,
2013-01-03 00:33:00,21.6,16.0,30.18,SW,225,3.3,6.4,79,0.00,,,0.00,WUHU21636XXSP,2013-01-03 06:33:00,
2013-01-03 00:38:00,21.6,16.0,30.18,SW,225,1.7,4.6,79,0.00,,,0.00,WUHU21636XXSP,2013-01-03 06:38:00,
2013-01-03 00:43:00,21.6,16.0,30.18,SW,225,3.1,3.3,79,0.00,,,0.00,WUHU21636XXSP,2013-01-03 06:43:00,
2013-01-03 00:48:00,21.4,15.8,30.18,SW,225,0.0,3.1,79,0.00,,,0.00,WUHU21636XXSP,2013-01-03 06:48:00,
2013-01-03 00:53:00,21.2,15.6,30.18,SW,225,0.0,0.6,79,0.00,,,0.00,WUHU21636XXSP,2013-01-03 06:53:00,
2013-01-03 00:58:00,21.2,15.6,30.18,SW,225,0.0,0.6,79,0.00,,,0.00,WUHU21636XXSP,2013-01-03 06:58:00,
2013-01-03 01:03:00,21.4,15.8,30.17,WSW,247,2.9,2.9,79,0.00,,,0.00,WUHU21636XXSP,2013-01-03 07:03:00,
2013-01-03 01:08:00,21.4,15.8,30.17,WSW,247,2.9,2.9,79,0.00,,,0.00,WUHU21636XXSP,2013-01-03 07:08:00,
2013-01-03 01:13:00,21.4,15.8,30.17,WSW,247,2.9,2.9,79,0.00,,,0.00,WUHU21636XXSP,2013-01-03 07:13:00,
2013-01-03 01:18:00,24.1,18.1,30.17,West,270,3.3,12.3,78,0.00,,,0.00,WUHU21636XXSP,2013-01-03 07:18:00,
2013-01-03 01:23:00,24.3,18.0,30.17,SW,225,3.5,12.3,77,0.00,,,0.00,WUHU21636XXSP,2013-01-03 07:23:00,
2013-01-03 01:28:00,24.1,17.8,30.18,West,270,3.1,9.6,77,0.00,,,0.00,WUHU21636XXSP,2013-01-03 07:28:00,
2013-01-03 01:33:00,23.7,17.4,30.18,WSW,247,5.1,9.6,77,0.00,,,0.00,WUHU21636XXSP,2013-01-03 07:33:00,
2013-01-03 01:38:00,23.4,17.1,30.18,West,270,0.0,6.9,77,0.00,,,0.00,WUHU21636XXSP,2013-01-03 07:38:00,
2013-01-03 01:43:00,23.2,16.9,30.18,WSW,247,2.2,6.9,77,0.00,,,0.00,WUHU21636XXSP,2013-01-03 07:43:00,
2013-01-03 01:48:00,22.8,16.9,30.18,WSW,247,0.0,6.4,78,0.00,,,0.00,WUHU21636XXSP,2013-01-03 07:48:00,
2013-01-03 01:53:00,22.6,16.7,30.18,WSW,247,3.5,3.5,78,0.00,,,0.00,WUHU21636XXSP,2013-01-03 07:53:00,
2013-01-03 01:58:00,22.6,16.7,30.19,WSW,247,0.0,3.5,78,0.00,,,0.00,WUHU21636XXSP,2013-01-03 07:58:00,
2013-01-03 02:03:00,22.6,16.7,30.19,WSW,247,0.0,3.5,78,0.00,,,0.00,WUHU21636XXSP,2013-01-03 08:03:00,
2013-01-03 02:08:00,22.6,16.7,30.19,WSW,247,0.0,0.0,78,0.00,,,0.00,WUHU21636XXSP,2013-01-03 08:08:00,
2013-01-03 02:13:00,22.6,16.7,30.19,WSW,247,0.0,0.0,78,0.00,,,0.00,WUHU21636XXSP,2013-01-03 08:13:00,
2013-01-03 02:18:00,22.3,16.7,30.20,West,270,4.9,6.2,79,0.00,,,0.00,WUHU21636XXSP,2013-01-03 08:18:00,
2013-01-03 02:23:00,22.3,16.7,30.20,West,270,0.0,6.2,80,0.00,,,0.00,WUHU21636XXSP,2013-01-03 08:23:00,
2013-01-03 02:28:00,22.3,17.1,30.20,WSW,247,3.8,8.2,80,0.00,,,0.00,WUHU21636XXSP,2013-01-03 08:28:00,
2013-01-03 02:33:00,22.5,17.2,30.20,WSW,247,2.2,8.2,80,0.00,,,0.00,WUHU21636XXSP,2013-01-03 08:33:00,
2013-01-03 02:38:00,22.6,17.4,30.20,WSW,247,3.5,3.8,80,0.00,,,0.00,WUHU21636XXSP,2013-01-03 08:38:00,
2013-01-03 02:43:00,22.8,17.6,30.20,West,270,4.2,4.2,80,0.00,,,0.00,WUHU21636XXSP,2013-01-03 08:43:00,
2013-01-03 02:48:00,23.2,18.0,30.20,West,270,4.4,4.4,80,0.00,,,0.00,WUHU21636XXSP,2013-01-03 08:48:00,
2013-01-03 02:53:00,23.4,18.1,30.21,West,270,4.2,4.4,80,0.00,,,0.00,WUHU21636XXSP,2013-01-03 08:53:00,
2013-01-03 02:58:00,23.5,18.3,30.21,West,270,3.1,6.2,80,0.00,,,0.00,WUHU21636XXSP,2013-01-03 08:58:00,
2013-01-03 03:03:00,23.5,18.3,30.21,WSW,247,2.9,6.2,80,0.00,,,0.00,WUHU21636XXSP,2013-01-03 09:03:00,
2013-01-03 03:08:00,23.5,18.3,30.21,West,270,2.2,3.1,79,0.00,,,0.00,WUHU21636XXSP,2013-01-03 09:08:00,
2013-01-03 03:13:00,23.2,18.0,30.21,WSW,247,1.1,2.9,80,0.00,,,0.00,WUHU21636XXSP,2013-01-03 09:13:00,
2013-01-03 03:18:00,22.8,17.6,30.21,West,270,2.0,2.2,80,0.00,,,0.00,WUHU21636XXSP,2013-01-03 09:18:00,
2013-01-03 03:23:00,22.6,17.6,30.21,West,270,2.0,2.2,81,0.00,,,0.00,WUHU21636XXSP,2013-01-03 09:23:00,
2013-01-03 03:28:00,22.6,17.6,30.21,West,270,0.6,3.3,81,0.00,,,0.00,WUHU21636XXSP,2013-01-03 09:28:00,
2013-01-03 03:33:00,22.8,18.1,30.21,WNW,292,5.8,6.9,82,0.00,,,0.00,WUHU21636XXSP,2013-01-03 09:33:00,
2013-01-03 03:38:00,23.2,18.5,30.21,West,270,2.2,6.9,82,0.00,,,0.00,WUHU21636XXSP,2013-01-03 09:38:00,
2013-01-03 03:43:00,23.5,18.9,30.21,West,270,4.0,5.8,82,0.00,,,0.00,WUHU21636XXSP,2013-01-03 09:43:00,
2013-01-03 03:48:00,23.7,19.0,30.21,West,270,3.3,4.0,82,0.00,,,0.00,WUHU21636XXSP,2013-01-03 09:48:00,
2013-01-03 03:53:00,23.9,19.2,30.21,West,270,2.4,6.4,82,0.00,,,0.00,WUHU21636XXSP,2013-01-03 09:53:00,
2013-01-03 03:58:00,23.9,19.2,30.21,WNW,292,3.3,6.4,82,0.00,,,0.00,WUHU21636XXSP,2013-01-03 09:58:00,
2013-01-03 04:03:00,24.1,19.4,30.22,WNW,292,4.2,4.2,82,0.00,,,0.00,WUHU21636XXSP,2013-01-03 10:03:00,
2013-01-03 04:08:00,24.1,19.4,30.22,WSW,247,3.3,4.2,82,0.00,,,0.00,WUHU21636XXSP,2013-01-03 10:08:00,
2013-01-03 04:13:00,23.7,19.0,30.22,West,270,0.0,4.2,82,0.00,,,0.00,WUHU21636XXSP,2013-01-03 10:13:00,
2013-01-03 04:18:00,23.5,18.9,30.21,West,270,0.0,3.3,82,0.00,,,0.00,WUHU21636XXSP,2013-01-03 10:18:00,
2013-01-03 04:23:00,23.2,18.5,30.21,West,270,0.0,0.0,82,0.00,,,0.00,WUHU21636XXSP,2013-01-03 10:23:00,
2013-01-03 04:28:00,23.4,18.9,30.21,West,270,0.0,0.0,83,0.00,,,0.00,WUHU21636XXSP,2013-01-03 10:28:00,
2013-01-03 04:33:00,23.2,18.7,30.21,West,270,0.0,0.0,83,0.00,,,0.00,WUHU21636XXSP,2013-01-03 10:33:00,
2013-01-03 04:38:00,22.8,18.3,30.21,West,270,0.0,0.6,83,0.00,,,0.00,WUHU21636XXSP,2013-01-03 10:38:00,
2013-01-03 04:43:00,22.6,18.1,30.21,WSW,247,0.0,0.6,83,0.00,,,0.00,WUHU21636XXSP,2013-01-03 10:43:00,
2013-01-03 04:48:00,22.3,18.1,30.22,West,270,0.0,0.0,84,0.00,,,0.00,WUHU21636XXSP,2013-01-03 10:48:00,
2013-01-03 04:53:00,22.3,18.1,30.22,West,270,0.0,0.0,84,0.00,,,0.00,WUHU21636XXSP,2013-01-03 10:53:00,
2013-01-03 04:58:00,22.3,18.1,30.22,West,270,0.0,0.0,84,0.00,,,0.00,WUHU21636XXSP,2013-01-03 10:58:00,
2013-01-03 05:03:00,22.6,18.7,30.22,WSW,247,0.0,0.0,85,0.00,,,0.00,WUHU21636XXSP,2013-01-03 11:03:00,
2013-01-03 05:08:00,22.8,19.2,30.22,WSW,247,0.0,0.0,86,0.00,,,0.00,WUHU21636XXSP,2013-01-03 11:08:00,
2013-01-03 05:13:00,22.8,19.2,30.22,WSW,247,0.0,0.0,86,0.00,,,0.00,WUHU21636XXSP,2013-01-03 11:13:00,
2013-01-03 05:18:00,22.8,19.2,30.22,WSW,247,0.0,0.0,85,0.00,,,0.00,WUHU21636XXSP,2013-01-03 11:18:00,
2013-01-03 05:23:00,22.8,19.2,30.22,WSW,247,0.0,0.0,86,0.00,,,0.00,WUHU21636XXSP,2013-01-03 11:23:00,
2013-01-03 05:28:00,22.8,19.2,30.22,WSW,247,0.0,0.0,86,0.00,,,0.00,WUHU21636XXSP,2013-01-03 11:28:00,
2013-01-03 05:33:00,22.8,19.2,30.22,WSW,247,0.0,0.0,86,0.00,,,0.00,WUHU21636XXSP,2013-01-03 11:33:00,
2013-01-03 05:38:00,22.8,19.2,30.22,WSW,247,0.0,0.0,86,0.00,,,0.00,WUHU21636XXSP,2013-01-03 11:38:00,
2013-01-03 05:43:00,22.8,19.2,30.22,WSW,247,0.0,0.0,86,0.00,,,0.00,WUHU21636XXSP,2013-01-03 11:43:00,
2013-01-03 05:48:00,23.2,19.8,30.22,WNW,292,4.2,4.2,87,0.00,,,0.00,WUHU21636XXSP,2013-01-03 11:48:00,
2013-01-03 05:53:00,23.2,19.8,30.22,WSW,247,3.1,4.2,87,0.00,,,0.00,WUHU21636XXSP,2013-01-03 11:53:00,
2013-01-03 05:58:00,23.4,19.9,30.22,West,270,0.0,4.2,87,0.00,,,0.00,WUHU21636XXSP,2013-01-03 11:58:00,
2013-01-03 06:03:00,23.5,20.1,30.22,West,270,0.0,3.1,87,0.00,,,0.00,WUHU21636XXSP,2013-01-03 12:03:00,
2013-01-03 06:08:00,23.5,20.1,30.23,West,270,0.0,0.6,87,0.00,,,0.00,WUHU21636XXSP,2013-01-03 12:08:00,
2013-01-03 06:13:00,23.4,19.9,30.23,West,270,0.0,0.6,87,0.00,,,0.00,WUHU21636XXSP,2013-01-03 12:13:00,
2013-01-03 06:18:00,23.4,19.9,30.23,WSW,247,0.0,0.0,87,0.00,,,0.00,WUHU21636XXSP,2013-01-03 12:18:00,
2013-01-03 06:23:00,23.2,19.8,30.23,West,270,0.0,0.0,87,0.00,,,0.00,WUHU21636XXSP,2013-01-03 12:23:00,
2013-01-03 06:28:00,23.2,19.8,30.23,West,270,0.0,0.0,87,0.00,,,0.00,WUHU21636XXSP,2013-01-03 12:28:00,
2013-01-03 06:33:00,23.2,19.8,30.23,West,270,0.0,0.0,87,0.00,,,0.00,WUHU21636XXSP,2013-01-03 12:33:00,
2013-01-03 06:38:00,23.2,19.8,30.23,WSW,247,0.0,0.0,87,0.00,,,0.00,WUHU21636XXSP,2013-01-03 12:38:00,
2013-01-03 06:43:00,23.2,19.8,30.23,West,270,0.0,0.0,88,0.00,,,0.00,WUHU21636XXSP,2013-01-03 12:43:00,
2013-01-03 06:48:00,23.2,20.1,30.23,WSW,247,0.0,1.5,88,0.00,,,0.00,WUHU21636XXSP,2013-01-03 12:48:00,
2013-01-03 06:53:00,22.8,19.8,30.23,West,270,0.0,1.5,88,0.00,,,0.00,WUHU21636XXSP,2013-01-03 12:53:00,
2013-01-03 06:58:00,22.8,19.8,30.24,West,270,0.0,0.0,88,0.00,,,0.00,WUHU21636XXSP,2013-01-03 12:58:00,
2013-01-03 07:03:00,22.6,19.6,30.24,West,270,0.0,0.0,88,0.00,,,0.00,WUHU21636XXSP,2013-01-03 13:03:00,
2013-01-03 07:08:00,22.6,19.6,30.24,West,270,0.0,0.0,88,0.00,,,0.00,WUHU21636XXSP,2013-01-03 13:08:00,
2013-01-03 07:13:00,22.6,19.6,30.24,West,270,0.0,0.0,88,0.00,,,0.00,WUHU21636XXSP,2013-01-03 13:13:00,
2013-01-03 07:18:00,22.8,19.8,30.24,West,270,0.0,0.0,89,0.00,,,0.00,WUHU21636XXSP,2013-01-03 13:18:00,
2013-01-03 07:23:00,22.8,19.8,30.24,WSW,247,0.0,0.0,89,0.00,,,0.00,WUHU21636XXSP,2013-01-03 13:23:00,
2013-01-03 07:28:00,23.2,20.3,30.24,West,270,0.0,0.0,89,0.00,,,0.00,WUHU21636XXSP,2013-01-03 13:28:00,
2013-01-03 07:33:00,23.7,20.8,30.24,SW,225,3.5,3.5,89,0.00,,,0.00,WUHU21636XXSP,2013-01-03 13:33:00,
2013-01-03 07:38:00,24.3,21.4,30.25,West,270,0.0,3.5,89,0.00,,,0.00,WUHU21636XXSP,2013-01-03 13:38:00,
2013-01-03 07:43:00,24.6,21.7,30.25,West,270,0.0,4.6,89,0.00,,,0.00,WUHU21636XXSP,2013-01-03 13:43:00,
2013-01-03 07:48:00,25.3,22.1,30.25,West,270,0.0,4.6,88,0.00,,,0.00,WUHU21636XXSP,2013-01-03 13:48:00,
2013-01-03 07:53:00,25.5,22.3,30.25,WSW,247,0.8,1.5,88,0.00,,,0.00,WUHU21636XXSP,2013-01-03 13:53:00,
2013-01-03 07:58:00,25.9,22.6,30.26,WSW,247,2.4,2.4,88,0.00,,,0.00,WUHU21636XXSP,2013-01-03 13:58:00,
2013-01-03 08:03:00,25.9,22.6,30.25,West,270,0.0,2.4,88,0.00,,,0.00,WUHU21636XXSP,2013-01-03 14:03:00,
2013-01-03 08:08:00,26.2,22.8,30.25,WSW,247,0.0,2.4,87,0.00,,,0.00,WUHU21636XXSP,2013-01-03 14:08:00,
2013-01-03 08:13:00,26.2,22.8,30.26,West,270,0.0,0.0,87,0.00,,,0.00,WUHU21636XXSP,2013-01-03 14:13:00,
2013-01-03 08:18:00,26.4,23.0,30.26,West,270,0.0,0.0,87,0.00,,,0.00,WUHU21636XXSP,2013-01-03 14:18:00,
2013-01-03 08:23:00,26.6,22.8,30.26,West,270,0.0,0.0,86,0.00,,,0.00,WUHU21636XXSP,2013-01-03 14:23:00,
2013-01-03 08:28:00,26.8,23.0,30.26,WSW,247,0.0,0.0,86,0.00,,,0.00,WUHU21636XXSP,2013-01-03 14:28:00,
2013-01-03 08:33:00,27.0,23.2,30.26,West,270,1.5,1.5,86,0.00,,,0.00,WUHU21636XXSP,2013-01-03 14:33:00,
2013-01-03 08:38:00,27.3,23.5,30.26,SW,225,0.0,1.5,86,0.00,,,0.00,WUHU21636XXSP,2013-01-03 14:38:00,
2013-01-03 08:43:00,27.5,23.7,30.26,WNW,292,0.6,1.5,86,0.00,,,0.00,WUHU21636XXSP,2013-01-03 14:43:00,
2013-01-03 08:48:00,27.7,23.7,30.26,West,270,0.0,0.6,86,0.00,,,0.00,WUHU21636XXSP,2013-01-03 14:48:00,
2013-01-03 08:53:00,28.0,24.1,30.27,West,270,0.0,0.6,85,0.00,,,0.00,WUHU21636XXSP,2013-01-03 14:53:00,
2013-01-03 08:58:00,28.2,24.3,30.27,West,270,0.6,0.6,85,0.00,,,0.00,WUHU21636XXSP,2013-01-03 14:58:00,
2013-01-03 09:03:00,28.2,24.3,30.27,WNW,292,3.5,3.5,85,0.00,,,0.00,WUHU21636XXSP,2013-01-03 15:03:00,
2013-01-03 09:08:00,28.6,24.3,30.27,West,270,0.0,3.5,84,0.00,,,0.00,WUHU21636XXSP,2013-01-03 15:08:00,
2013-01-03 09:13:00,28.8,24.4,30.27,WSW,247,0.0,3.5,84,0.00,,,0.00,WUHU21636XXSP,2013-01-03 15:13:00,
2013-01-03 09:18:00,28.9,24.6,30.28,West,270,0.0,0.0,84,0.00,,,0.00,WUHU21636XXSP,2013-01-03 15:18:00,
2013-01-03 09:23:00,29.3,25.0,30.28,West,270,0.0,0.0,84,0.00,,,0.00,WUHU21636XXSP,2013-01-03 15:23:00,
2013-01-03 09:28:00,29.5,24.8,30.29,West,270,0.0,3.8,83,0.00,,,0.00,WUHU21636XXSP,2013-01-03 15:28:00,
2013-01-03 09:33:00,29.8,25.2,30.29,West,270,0.0,3.8,83,0.00,,,0.00,WUHU21636XXSP,2013-01-03 15:33:00,
2013-01-03 09:38:00,29.8,25.2,30.29,NW,315,2.2,2.2,83,0.00,,,0.00,WUHU21636XXSP,2013-01-03 15:38:00,
2013-01-03 09:43:00,29.5,24.8,30.29,WSW,247,0.0,2.2,83,0.00,,,0.00,WUHU21636XXSP,2013-01-03 15:43:00,
2013-01-03 09:48:00,29.8,25.2,30.29,West,270,0.0,2.2,83,0.00,,,0.00,WUHU21636XXSP,2013-01-03 15:48:00,
2013-01-03 09:53:00,30.0,25.3,30.29,WSW,247,3.1,3.1,82,0.00,,,0.00,WUHU21636XXSP,2013-01-03 15:53:00,
2013-01-03 09:58:00,30.4,25.5,30.30,NW,315,2.6,3.1,82,0.00,,,0.00,WUHU21636XXSP,2013-01-03 15:58:00,
2013-01-03 10:03:00,30.4,25.5,30.30,WSW,247,0.0,3.1,82,0.00,,,0.00,WUHU21636XXSP,2013-01-03 16:03:00,
2013-01-03 10:08:00,30.6,25.7,30.30,West,270,0.0,2.6,82,0.00,,,0.00,WUHU21636XXSP,2013-01-03 16:08:00,
2013-01-03 10:13:00,31.1,25.9,30.30,West,270,0.0,0.0,81,0.00,,,0.00,WUHU21636XXSP,2013-01-03 16:13:00,
2013-01-03 10:18:00,31.1,25.9,30.30,WSW,247,0.0,3.8,81,0.00,,,0.00,WUHU21636XXSP,2013-01-03 16:18:00,
2013-01-03 10:23:00,31.3,26.1,30.30,West,270,0.0,3.8,81,0.00,,,0.00,WUHU21636XXSP,2013-01-03 16:23:00,
2013-01-03 10:28:00,31.8,26.4,30.30,NW,315,5.3,7.3,80,0.00,,,0.00,WUHU21636XXSP,2013-01-03 16:28:00,
2013-01-03 10:33:00,31.8,26.1,30.30,West,270,1.3,7.3,80,0.00,,,0.00,WUHU21636XXSP,2013-01-03 16:33:00,
2013-01-03 10:38:00,32.4,26.6,30.30,West,270,2.9,6.7,79,0.00,,,0.00,WUHU21636XXSP,2013-01-03 16:38:00,
2013-01-03 10:43:00,33.1,27.1,30.30,West,270,2.4,8.5,79,0.00,,,0.00,WUHU21636XXSP,2013-01-03 16:43:00,
2013-01-03 10:48:00,33.6,27.3,30.31,WNW,292,4.6,8.5,78,0.00,,,0.00,WUHU21636XXSP,2013-01-03 16:48:00,
2013-01-03 10:53:00,34.0,27.3,30.31,SW,225,3.8,4.6,77,0.00,,,0.00,WUHU21636XXSP,2013-01-03 16:53:00,
2013-01-03 10:58:00,34.2,27.1,30.31,WSW,247,5.3,7.6,76,0.00,,,0.00,WUHU21636XXSP,2013-01-03 16:58:00,
2013-01-03 11:03:00,34.2,27.1,30.31,West,270,5.3,7.6,76,0.00,,,0.00,WUHU21636XXSP,2013-01-03 17:03:00,
2013-01-03 11:08:00,34.2,27.1,30.31,WNW,292,9.1,9.6,76,0.00,,,0.00,WUHU21636XXSP,2013-01-03 17:08:00,
2013-01-03 11:13:00,33.6,27.0,30.31,West,270,3.5,11.1,77,0.00,,,0.00,WUHU21636XXSP,2013-01-03 17:13:00,
2013-01-03 11:18:00,34.5,27.9,30.30,West,270,2.9,11.1,77,0.00,,,0.00,WUHU21636XXSP,2013-01-03 17:18:00,
2013-01-03 11:23:00,36.7,29.1,30.30,West,270,2.9,8.7,74,0.00,,,0.00,WUHU21636XXSP,2013-01-03 17:23:00,
2013-01-03 11:28:00,37.6,28.9,30.30,West,270,2.0,4.6,71,0.00,,,0.00,WUHU21636XXSP,2013-01-03 17:28:00,
2013-01-03 11:33:00,36.0,27.7,30.29,West,270,4.6,8.5,72,0.00,,,0.00,WUHU21636XXSP,2013-01-03 17:33:00,
2013-01-03 11:38:00,34.9,27.7,30.30,West,270,5.5,10.0,75,0.00,,,0.00,WUHU21636XXSP,2013-01-03 17:38:00,
2013-01-03 11:43:00,34.9,27.7,30.29,West,270,6.2,10.0,75,0.00,,,0.00,WUHU21636XXSP,2013-01-03 17:43:00,
2013-01-03 11:48:00,36.5,28.9,30.29,West,270,5.3,16.7,74,0.00,,,0.00,WUHU21636XXSP,2013-01-03 17:48:00,
2013-01-03 11:53:00,36.3,28.0,30.29,West,270,3.5,16.7,72,0.00,,,0.00,WUHU21636XXSP,2013-01-03 17:53:00,
2013-01-03 11:58:00,35.6,28.0,30.29,West,270,4.6,12.5,74,0.00,,,0.00,WUHU21636XXSP,2013-01-03 17:58:00,
2013-01-03 12:03:00,36.3,28.4,30.29,West,270,3.5,12.5,73,0.00,,,0.00,WUHU21636XXSP,2013-01-03 18:03:00,
2013-01-03 12:08:00,37.0,28.8,30.29,West,270,4.0,10.5,72,0.00,,,0.00,WUHU21636XXSP,2013-01-03 18:08:00,
2013-01-03 12:13:00,38.8,29.5,30.28,West,270,4.4,8.7,69,0.00,,,0.00,WUHU21636XXSP,2013-01-03 18:13:00,
2013-01-03 12:18:00,38.7,29.3,30.28,WNW,292,3.8,9.8,69,0.00,,,0.00,WUHU21636XXSP,2013-01-03 18:18:00,
2013-01-03 12:23:00,39.2,29.3,30.28,West,270,6.2,9.8,68,0.00,,,0.00,WUHU21636XXSP,2013-01-03 18:23:00,
2013-01-03 12:28:00,39.9,29.3,30.28,NW,315,6.2,11.6,66,0.00,,,0.00,WUHU21636XXSP,2013-01-03 18:28:00,
2013-01-03 12:33:00,39.9,30.0,30.28,WSW,247,3.3,11.6,68,0.00,,,0.00,WUHU21636XXSP,2013-01-03 18:33:00,
2013-01-03 12:38:00,41.7,30.4,30.28,West,270,4.4,10.2,64,0.00,,,0.00,WUHU21636XXSP,2013-01-03 18:38:00,
2013-01-03 12:43:00,42.1,30.2,30.28,SW,225,2.6,7.3,63,0.00,,,0.00,WUHU21636XXSP,2013-01-03 18:43:00,
2013-01-03 12:48:00,41.5,29.8,30.28,West,270,3.3,8.2,63,0.00,,,0.00,WUHU21636XXSP,2013-01-03 18:48:00,
2013-01-03 12:53:00,41.5,30.2,30.28,West,270,4.0,8.2,64,0.00,,,0.00,WUHU21636XXSP,2013-01-03 18:53:00,
2013-01-03 12:58:00,41.7,30.4,30.28,West,270,6.7,8.9,64,0.00,,,0.00,WUHU21636XXSP,2013-01-03 18:58:00,
2013-01-03 13:03:00,41.7,30.0,30.28,West,270,3.1,8.9,63,0.00,,,0.00,WUHU21636XXSP,2013-01-03 19:03:00,
2013-01-03 13:08:00,40.6,29.7,30.28,West,270,6.2,10.5,65,0.00,,,0.00,WUHU21636XXSP,2013-01-03 19:08:00,
2013-01-03 13:13:00,40.6,29.7,30.28,West,270,4.6,10.5,65,0.00,,,0.00,WUHU21636XXSP,2013-01-03 19:13:00,
2013-01-03 13:18:00,39.2,28.9,30.28,West,270,4.2,14.9,67,0.00,,,0.00,WUHU21636XXSP,2013-01-03 19:18:00,
2013-01-03 13:55:00,36.7,28.4,30.28,WSW,247,6.0,17.4,72,0.00,,,0.00,WUHU21636XXSP,2013-01-03 19:55:00,
2013-01-03 14:00:00,37.0,29.1,30.28,West,270,3.3,13.4,73,0.00,,,0.00,WUHU21636XXSP,2013-01-03 20:00:00,
2013-01-03 14:05:00,37.0,29.1,30.28,West,270,3.3,7.6,73,0.00,,,0.00,WUHU21636XXSP,2013-01-03 20:05:00,
2013-01-03 14:10:00,36.7,28.8,30.28,West,270,2.0,5.5,73,0.00,,,0.00,WUHU21636XXSP,2013-01-03 20:10:00,
2013-01-03 14:15:00,36.7,28.8,30.28,West,270,2.6,10.0,73,0.00,,,0.00,WUHU21636XXSP,2013-01-03 20:15:00,
2013-01-03 14:20:00,36.3,28.8,30.28,WNW,292,3.1,10.0,74,0.00,,,0.00,WUHU21636XXSP,2013-01-03 20:20:00,
2013-01-03 14:25:00,36.1,28.6,30.28,WSW,247,4.9,8.9,74,0.00,,,0.00,WUHU21636XXSP,2013-01-03 20:25:00,
2013-01-03 14:30:00,35.8,28.6,30.28,West,270,5.5,13.4,75,0.00,,,0.00,WUHU21636XXSP,2013-01-03 20:30:00,
2013-01-03 14:35:00,35.4,28.4,30.28,West,270,4.0,13.4,76,0.00,,,0.00,WUHU21636XXSP,2013-01-03 20:35:00,
2013-01-03 14:40:00,35.4,28.4,30.29,West,270,4.2,9.3,76,0.00,,,0.00,WUHU21636XXSP,2013-01-03 20:40:00,
2013-01-03 14:45:00,35.4,28.4,30.29,WNW,292,5.5,5.5,76,0.00,,,0.00,WUHU21636XXSP,2013-01-03 20:45:00,
2013-01-03 14:50:00,35.2,28.0,30.29,West,270,3.3,9.1,75,0.00,,,0.00,WUHU21636XXSP,2013-01-03 20:50:00,
2013-01-03 14:55:00,35.2,27.7,30.29,West,270,5.1,9.1,74,0.00,,,0.00,WUHU21636XXSP,2013-01-03 20:55:00,
2013-01-03 15:00:00,35.2,27.7,30.29,WSW,247,4.9,8.7,74,0.00,,,0.00,WUHU21636XXSP,2013-01-03 21:00:00,
2013-01-03 15:05:00,35.2,27.3,30.30,West,270,5.3,8.7,73,0.00,,,0.00,WUHU21636XXSP,2013-01-03 21:05:00,
2013-01-03 15:10:00,34.9,27.0,30.30,WSW,247,3.5,11.1,73,0.00,,,0.00,WUHU21636XXSP,2013-01-03 21:10:00,
2013-01-03 15:15:00,35.1,27.1,30.30,West,270,1.7,11.1,73,0.00,,,0.00,WUHU21636XXSP,2013-01-03 21:15:00,
2013-01-03 15:20:00,34.9,27.0,30.30,West,270,5.3,9.3,73,0.00,,,0.00,WUHU21636XXSP,2013-01-03 21:20:00,
2013-01-03 15:25:00,34.7,26.8,30.30,West,270,4.2,11.4,73,0.00,,,0.00,WUHU21636XXSP,2013-01-03 21:25:00,
2013-01-03 15:30:00,34.7,26.8,30.30,WNW,292,10.0,18.5,73,0.00,,,0.00,WUHU21636XXSP,2013-01-03 21:30:00,
2013-01-03 15:35:00,34.7,26.8,30.30,WNW,292,8.5,18.5,73,0.00,,,0.00,WUHU21636XXSP,2013-01-03 21:35:00,
2013-01-03 15:40:00,34.5,26.6,30.31,West,270,5.8,14.0,73,0.00,,,0.00,WUHU21636XXSP,2013-01-03 21:40:00,
2013-01-03 15:45:00,34.5,26.6,30.31,NW,315,8.5,14.0,73,0.00,,,0.00,WUHU21636XXSP,2013-01-03 21:45:00,
2013-01-03 15:50:00,34.5,27.0,30.31,West,270,3.8,17.2,74,0.00,,,0.00,WUHU21636XXSP,2013-01-03 21:50:00,
2013-01-03 15:55:00,34.5,26.6,30.31,West,270,4.4,17.2,73,0.00,,,0.00,WUHU21636XXSP,2013-01-03 21:55:00,
2013-01-03 16:00:00,34.3,26.8,30.31,West,270,2.6,11.8,74,0.00,,,0.00,WUHU21636XXSP,2013-01-03 22:00:00,
2013-01-03 16:05:00,34.3,26.8,30.31,West,270,4.6,12.9,74,0.00,,,0.00,WUHU21636XXSP,2013-01-03 22:05:00,
2013-01-03 16:10:00,34.3,27.1,30.31,NW,315,6.0,12.9,75,0.00,,,0.00,WUHU21636XXSP,2013-01-03 22:10:00,
2013-01-03 16:15:00,34.2,27.1,30.31,WNW,292,3.8,9.1,76,0.00,,,0.00,WUHU21636XXSP,2013-01-03 22:15:00,
2013-01-03 16:20:00,34.0,27.0,30.31,NW,315,4.6,9.1,76,0.00,,,0.00,WUHU21636XXSP,2013-01-03 22:20:00,
2013-01-03 16:25:00,34.0,27.3,30.31,NW,315,4.9,9.1,77,0.00,,,0.00,WUHU21636XXSP,2013-01-03 22:25:00,
2013-01-03 16:30:00,33.6,27.3,30.31,NW,315,3.8,8.9,78,0.00,,,0.00,WUHU21636XXSP,2013-01-03 22:30:00,
2013-01-03 16:35:00,33.4,27.5,30.31,NW,315,6.7,10.0,79,0.00,,,0.00,WUHU21636XXSP,2013-01-03 22:35:00,
2013-01-03 16:40:00,33.1,27.1,30.31,WNW,292,4.0,11.6,79,0.00,,,0.00,WUHU21636XXSP,2013-01-03 22:40:00,
2013-01-03 16:45:00,33.1,27.5,30.32,NW,315,4.2,11.6,80,0.00,,,0.00,WUHU21636XXSP,2013-01-03 22:45:00,
2013-01-03 16:50:00,32.9,27.3,30.32,NW,315,4.0,8.9,80,0.00,,,0.00,WUHU21636XXSP,2013-01-03 22:50:00,
2013-01-03 16:55:00,32.7,27.5,30.32,WNW,292,4.2,8.9,81,0.00,,,0.00,WUHU21636XXSP,2013-01-03 22:55:00,
2013-01-03 17:00:00,32.7,27.5,30.32,NW,315,7.1,9.1,81,0.00,,,0.00,WUHU21636XXSP,2013-01-03 23:00:00,
2013-01-03 17:05:00,32.5,27.3,30.32,WNW,292,3.5,9.8,81,0.00,,,0.00,WUHU21636XXSP,2013-01-03 23:05:00,
2013-01-03 17:10:00,32.4,27.5,30.32,West,270,4.4,9.8,82,0.00,,,0.00,WUHU21636XXSP,2013-01-03 23:10:00,
2013-01-03 17:15:00,32.4,27.5,30.33,NW,315,3.1,4.4,82,0.00,,,0.00,WUHU21636XXSP,2013-01-03 23:15:00,
2013-01-03 17:20:00,32.4,27.5,30.33,NW,315,0.0,4.4,82,0.00,,,0.00,WUHU21636XXSP,2013-01-03 23:20:00,
2013-01-03 17:25:00,32.2,27.3,30.33,NW,315,0.0,8.5,82,0.00,,,0.00,WUHU21636XXSP,2013-01-03 23:25:00,
2013-01-03 17:30:00,32.2,27.3,30.33,NW,315,0.0,8.5,83,0.00,,,0.00,WUHU21636XXSP,2013-01-03 23:30:00,
2013-01-03 17:35:00,32.0,27.3,30.33,WNW,292,4.4,4.4,83,0.00,,,0.00,WUHU21636XXSP,2013-01-03 23:35:00,
2013-01-03 17:40:00,32.0,27.3,30.34,NW,315,2.0,4.4,83,0.00,,,0.00,WUHU21636XXSP,2013-01-03 23:40:00,
2013-01-03 17:45:00,31.8,27.5,30.34,NW,315,0.0,6.2,84,0.00,,,0.00,WUHU21636XXSP,2013-01-03 23:45:00,
2013-01-03 17:50:00,31.8,27.5,30.33,NW,315,0.6,6.2,84,0.00,,,0.00,WUHU21636XXSP,2013-01-03 23:50:00,
2013-01-03 17:55:00,31.8,27.5,30.34,NW,315,1.7,2.9,84,0.00,,,0.00,WUHU21636XXSP,2013-01-03 23:55:00,
2013-01-03 18:00:00,31.8,27.5,30.34,NW,315,0.0,2.2,84,0.00,,,0.00,WUHU21636XXSP,2013-01-04 00:00:00,
2013-01-03 18:05:00,31.8,27.5,30.33,NW,315,0.0,1.7,84,0.00,,,0.00,WUHU21636XXSP,2013-01-04 00:05:00,
2013-01-03 18:10:00,31.8,27.5,30.34,NW,315,3.3,3.3,84,0.00,,,0.00,WUHU21636XXSP,2013-01-04 00:10:00,
2013-01-03 18:15:00,31.6,27.3,30.34,NW,315,1.7,3.3,84,0.00,,,0.00,WUHU21636XXSP,2013-01-04 00:15:00,
2013-01-03 18:20:00,31.6,27.3,30.34,WNW,292,4.6,4.6,84,0.00,,,0.00,WUHU21636XXSP,2013-01-04 00:20:00,
2013-01-03 18:25:00,31.6,27.3,30.34,NW,315,4.9,4.9,84,0.00,,,0.00,WUHU21636XXSP,2013-01-04 00:25:00,
2013-01-03 18:30:00,31.6,27.0,30.34,NW,315,8.5,11.6,83,0.00,,,0.00,WUHU21636XXSP,2013-01-04 00:30:00,
2013-01-03 18:35:00,31.5,26.8,30.34,NW,315,3.3,12.9,83,0.00,,,0.00,WUHU21636XXSP,2013-01-04 00:35:00,
2013-01-03 18:40:00,31.3,26.4,30.34,NW,315,0.0,12.9,82,0.00,,,0.00,WUHU21636XXSP,2013-01-04 00:40:00,
2013-01-03 18:45:00,31.3,26.4,30.34,NW,315,2.9,8.0,82,0.00,,,0.00,WUHU21636XXSP,2013-01-04 00:45:00,
2013-01-03 18:50:00,31.3,26.4,30.35,WNW,292,6.7,10.7,82,0.00,,,0.00,WUHU21636XXSP,2013-01-04 00:50:00,
2013-01-03 18:55:00,31.1,25.9,30.35,NW,315,4.2,10.7,81,0.00,,,0.00,WUHU21636XXSP,2013-01-04 00:55:00,
2013-01-03 19:00:00,31.1,26.2,30.35,NW,315,2.9,10.5,82,0.00,,,0.00,WUHU21636XXSP,2013-01-04 01:00:00,
2013-01-03 19:05:00,30.9,25.7,30.35,NW,315,4.9,12.3,81,0.00,,,0.00,WUHU21636XXSP,2013-01-04 01:05:00,
2013-01-03 19:10:00,30.9,25.7,30.36,WNW,292,4.9,12.3,81,0.00,,,0.00,WUHU21636XXSP,2013-01-04 01:10:00,
2013-01-03 19:16:00,30.7,25.5,30.35,NW,315,5.1,9.8,81,0.00,,,0.00,WUHU21636XXSP,2013-01-04 01:16:00,
2013-01-03 19:21:00,30.7,25.5,30.36,WNW,292,4.0,9.8,81,0.00,,,0.00,WUHU21636XXSP,2013-01-04 01:21:00,
2013-01-03 19:26:00,30.6,25.3,30.35,WNW,292,3.3,8.7,81,0.00,,,0.00,WUHU21636XXSP,2013-01-04 01:26:00,
2013-01-03 19:31:00,30.4,25.2,30.35,NW,315,4.2,9.6,81,0.00,,,0.00,WUHU21636XXSP,2013-01-04 01:31:00,
2013-01-03 19:36:00,30.4,25.2,30.36,WNW,292,4.6,9.6,81,0.00,,,0.00,WUHU21636XXSP,2013-01-04 01:36:00,
2013-01-03 19:41:00,30.0,24.8,30.36,NW,315,4.6,8.7,81,0.00,,,0.00,WUHU21636XXSP,2013-01-04 01:41:00,
2013-01-03 19:46:00,30.0,24.8,30.36,NW,315,0.0,8.2,81,0.00,,,0.00,WUHU21636XXSP,2013-01-04 01:46:00,
2013-01-03 19:51:00,29.8,24.4,30.36,WNW,292,0.0,8.2,80,0.00,,,0.00,WUHU21636XXSP,2013-01-04 01:51:00,
2013-01-03 19:56:00,29.8,24.4,30.36,WNW,292,3.3,7.3,81,0.00,,,0.00,WUHU21636XXSP,2013-01-04 01:56:00,
2013-01-03 20:01:00,29.8,24.4,30.36,NW,315,3.8,8.0,80,0.00,,,0.00,WUHU21636XXSP,2013-01-04 02:01:00,
2013-01-03 20:06:00,29.8,24.4,30.36,NW,315,4.6,8.0,80,0.00,,,0.00,WUHU21636XXSP,2013-01-04 02:06:00,
2013-01-03 20:11:00,29.7,24.3,30.36,WNW,292,4.0,6.9,80,0.00,,,0.00,WUHU21636XXSP,2013-01-04 02:11:00,
2013-01-03 20:16:00,29.5,24.3,30.36,WNW,292,0.0,4.6,81,0.00,,,0.00,WUHU21636XXSP,2013-01-04 02:16:00,
2013-01-03 20:21:00,29.5,24.3,30.36,WNW,292,0.0,4.4,81,0.00,,,0.00,WUHU21636XXSP,2013-01-04 02:21:00,
2013-01-03 20:26:00,29.3,24.1,30.36,WNW,292,0.2,3.8,81,0.00,,,0.00,WUHU21636XXSP,2013-01-04 02:26:00,
2013-01-03 20:31:00,29.1,23.9,30.36,WNW,292,4.2,4.6,81,0.00,,,0.00,WUHU21636XXSP,2013-01-04 02:31:00,
2013-01-03 20:36:00,29.1,23.7,30.36,WNW,292,2.9,8.9,80,0.00,,,0.00,WUHU21636XXSP,2013-01-04 02:36:00,
2013-01-03 20:41:00,28.9,23.7,30.37,NW,315,4.0,8.9,81,0.00,,,0.00,WUHU21636XXSP,2013-01-04 02:41:00,
2013-01-03 20:46:00,28.9,23.5,30.36,NW,315,0.2,8.5,80,0.00,,,0.00,WUHU21636XXSP,2013-01-04 02:46:00,
2013-01-03 20:51:00,28.8,23.4,30.36,NW,315,2.6,9.6,80,0.00,,,0.00,WUHU21636XXSP,2013-01-04 02:51:00,
2013-01-03 20:56:00,28.6,23.2,30.36,WNW,292,4.9,9.6,80,0.00,,,0.00,WUHU21636XXSP,2013-01-04 02:56:00,
2013-01-03 21:01:00,28.6,23.2,30.36,NW,315,2.4,6.7,80,0.00,,,0.00,WUHU21636XXSP,2013-01-04 03:01:00,
2013-01-03 21:06:00,28.4,23.0,30.36,NW,315,4.2,6.7,80,0.00,,,0.00,WUHU21636XXSP,2013-01-04 03:06:00,
2013-01-03 21:11:00,28.2,22.5,30.37,NW,315,4.0,6.9,79,0.00,,,0.00,WUHU21636XXSP,2013-01-04 03:11:00,
2013-01-03 21:16:00,28.2,22.5,30.37,WNW,292,0.0,6.9,80,0.00,,,0.00,WUHU21636XXSP,2013-01-04 03:16:00,
2013-01-03 21:21:00,28.2,22.8,30.37,WNW,292,5.1,8.9,80,0.00,,,0.00,WUHU21636XXSP,2013-01-04 03:21:00,
2013-01-03 21:26:00,28.2,22.5,30.37,WNW,292,6.9,10.0,79,0.00,,,0.00,WUHU21636XXSP,2013-01-04 03:26:00,
2013-01-03 21:31:00,28.0,21.9,30.36,NW,315,4.6,10.9,78,0.00,,,0.00,WUHU21636XXSP,2013-01-04 03:31:00,
2013-01-03 21:35:00,28.0,21.6,30.36,NW,315,6.7,10.9,77,0.00,,,0.00,WUHU21636XXSP,2013-01-04 03:35:00,
2013-01-03 21:40:00,27.7,21.6,30.37,WNW,292,3.5,7.6,78,0.00,,,0.00,WUHU21636XXSP,2013-01-04 03:40:00,
2013-01-03 21:46:00,27.3,21.2,30.37,WNW,292,6.9,9.1,78,0.00,,,0.00,WUHU21636XXSP,2013-01-04 03:46:00,
2013-01-03 21:51:00,27.1,21.4,30.37,NW,315,4.4,9.1,79,0.00,,,0.00,WUHU21636XXSP,2013-01-04 03:51:00,
2013-01-03 21:56:00,27.0,21.2,30.37,NW,315,4.0,6.9,79,0.00,,,0.00,WUHU21636XXSP,2013-01-04 03:56:00,
2013-01-03 22:01:00,26.8,21.0,30.37,NW,315,3.8,6.4,79,0.00,,,0.00,WUHU21636XXSP,2013-01-04 04:01:00,
2013-01-03 22:06:00,26.6,20.8,30.37,NW,315,0.0,6.2,79,0.00,,,0.00,WUHU21636XXSP,2013-01-04 04:06:00,
2013-01-03 22:11:00,26.2,20.8,30.37,NW,315,0.0,3.8,80,0.00,,,0.00,WUHU21636XXSP,2013-01-04 04:11:00,
2013-01-03 22:15:00,26.1,20.7,30.37,NW,315,0.0,4.2,80,0.00,,,0.00,WUHU21636XXSP,2013-01-04 04:15:00,
2013-01-03 22:20:00,25.7,20.3,30.37,West,270,0.0,4.2,80,0.00,,,0.00,WUHU21636XXSP,2013-01-04 04:20:00,
2013-01-03 22:25:00,25.7,20.3,30.37,West,270,2.9,2.9,81,0.00,,,0.00,WUHU21636XXSP,2013-01-04 04:25:00,
2013-01-03 22:30:00,25.3,20.3,30.37,West,270,0.0,2.9,81,0.00,,,0.00,WUHU21636XXSP,2013-01-04 04:30:00,
2013-01-03 22:35:00,25.3,20.3,30.37,West,270,1.5,2.9,81,0.00,,,0.00,WUHU21636XXSP,2013-01-04 04:35:00,
2013-01-03 22:40:00,25.3,20.3,30.37,WNW,292,4.6,6.9,81,0.00,,,0.00,WUHU21636XXSP,2013-01-04 04:40:00,
2013-01-03 22:45:00,25.3,20.3,30.37,WNW,292,2.4,6.9,81,0.00,,,0.00,WUHU21636XXSP,2013-01-04 04:45:00,
2013-01-03 22:50:00,25.0,19.9,30.37,WNW,292,0.8,4.6,81,0.00,,,0.00,WUHU21636XXSP,2013-01-04 04:50:00,
2013-01-03 22:55:00,24.8,20.1,30.37,WNW,292,2.6,2.6,82,0.00,,,0.00,WUHU21636XXSP,2013-01-04 04:55:00,
2013-01-03 23:01:00,24.6,19.9,30.37,WNW,292,2.6,2.6,82,0.00,,,0.00,WUHU21636XXSP,2013-01-04 05:01:00,
2013-01-03 23:02:00,24.6,19.9,30.37,WNW,292,0.6,2.6,82,0.00,,,0.00,WUHU21636XXSP,2013-01-04 05:02:00,
2013-01-03 23:03:00,24.6,19.9,30.37,WNW,292,0.6,2.6,82,0.00,,,0.00,WUHU21636XXSP,2013-01-04 05:03:00,
2013-01-03 23:08:00,24.4,19.8,30.37,WNW,292,1.5,2.6,82,0.00,,,0.00,WUHU21636XXSP,2013-01-04 05:08:00,
2013-01-03 23:13:00,24.4,19.8,30.37,WNW,292,2.2,2.2,82,0.00,,,0.00,WUHU21636XXSP,2013-01-04 05:13:00,
2013-01-03 23:18:00,23.9,19.4,30.36,WNW,292,0.0,2.2,83,0.00,,,0.00,WUHU21636XXSP,2013-01-04 05:18:00,
2013-01-03 23:23:00,23.4,18.7,30.36,WNW,292,0.0,2.2,82,0.00,,,0.00,WUHU21636XXSP,2013-01-04 05:23:00,
2013-01-03 23:28:00,22.6,18.0,30.36,WNW,292,0.0,0.0,82,0.00,,,0.00,WUHU21636XXSP,2013-01-04 05:28:00,
2013-01-03 23:33:00,21.7,17.2,30.36,WNW,292,0.0,0.0,83,0.00,,,0.00,WUHU21636XXSP,2013-01-04 05:33:00,
2013-01-03 23:38:00,21.6,17.4,30.36,WNW,292,0.0,0.0,84,0.00,,,0.00,WUHU21636XXSP,2013-01-04 05:38:00,
2013-01-03 23:43:00,21.6,17.4,30.36,WNW,292,0.0,0.0,85,0.00,,,0.00,WUHU21636XXSP,2013-01-04 05:43:00,
2013-01-03 23:48:00,21.4,17.8,30.36,WNW,292,0.0,0.0,86,0.00,,,0.00,WUHU21636XXSP,2013-01-04 05:48:00,
2013-01-03 23:53:00,21.6,18.0,30.35,WNW,292,0.0,0.0,86,0.00,,,0.00,WUHU21636XXSP,2013-01-04 05:53:00,
2013-01-03 23:58:00,21.6,18.0,30.35,WNW,292,0.0,0.0,86,0.00,,,0.00,WUHU21636XXSP,2013-01-04 05:58:00,